sensor_id;sensor_type;location;lat;lon;timestamp;temperature;humidity
210;DHT22;90;48.810;9.120;2022-09-28T00:01:34;9.70;92.40
210;DHT22;90;48.810;9.120;2022-09-28T00:04:03;9.70;92.90
210;DHT22;90;48.810;9.120;2022-09-28T00:06:39;9.80;92.90
210;DHT22;90;48.810;9.120;2022-09-28T00:09:09;9.80;92.80
210;DHT22;90;48.810;9.120;2022-09-28T00:11:40;9.90;92.80
210;DHT22;90;48.810;9.120;2022-09-28T00:14:12;9.90;92.90
210;DHT22;90;48.810;9.120;2022-09-28T00:16:41;9.90;92.70
210;DHT22;90;48.810;9.120;2022-09-28T00:19:19;9.80;93.10
210;DHT22;90;48.810;9.120;2022-09-28T00:21:49;9.80;93.50
210;DHT22;90;48.810;9.120;2022-09-28T00:24:21;9.80;93.50
210;DHT22;90;48.810;9.120;2022-09-28T00:26:49;9.80;93.50
210;DHT22;90;48.810;9.120;2022-09-28T00:29:21;9.80;93.80
210;DHT22;90;48.810;9.120;2022-09-28T00:31:51;9.80;93.90
210;DHT22;90;48.810;9.120;2022-09-28T00:34:24;9.90;93.70
210;DHT22;90;48.810;9.120;2022-09-28T00:36:57;9.80;93.70
210;DHT22;90;48.810;9.120;2022-09-28T00:39:29;9.90;93.90
210;DHT22;90;48.810;9.120;2022-09-28T00:42:13;9.90;93.80
210;DHT22;90;48.810;9.120;2022-09-28T00:44:47;9.80;94.20
210;DHT22;90;48.810;9.120;2022-09-28T00:50:21;9.90;94.10
210;DHT22;90;48.810;9.120;2022-09-28T00:52:56;9.90;94.00
210;DHT22;90;48.810;9.120;2022-09-28T00:55:33;9.90;94.20
210;DHT22;90;48.810;9.120;2022-09-28T00:58:04;9.90;94.20
210;DHT22;90;48.810;9.120;2022-09-28T01:00:40;9.90;94.50
210;DHT22;90;48.810;9.120;2022-09-28T01:03:09;9.90;94.60
210;DHT22;90;48.810;9.120;2022-09-28T01:05:38;10.00;94.60
210;DHT22;90;48.810;9.120;2022-09-28T01:08:06;9.90;94.80
210;DHT22;90;48.810;9.120;2022-09-28T01:10:46;10.00;94.80
210;DHT22;90;48.810;9.120;2022-09-28T01:13:14;10.00;94.70
210;DHT22;90;48.810;9.120;2022-09-28T01:15:52;10.00;94.60
210;DHT22;90;48.810;9.120;2022-09-28T01:18:31;10.00;94.80
210;DHT22;90;48.810;9.120;2022-09-28T01:21:03;10.00;94.90
210;DHT22;90;48.810;9.120;2022-09-28T01:24:00;10.00;95.00
210;DHT22;90;48.810;9.120;2022-09-28T01:26:57;10.00;95.00
210;DHT22;90;48.810;9.120;2022-09-28T01:29:37;10.00;95.10
210;DHT22;90;48.810;9.120;2022-09-28T01:32:26;10.10;95.00
210;DHT22;90;48.810;9.120;2022-09-28T01:34:57;10.10;94.80
210;DHT22;90;48.810;9.120;2022-09-28T01:37:44;10.10;95.00
210;DHT22;90;48.810;9.120;2022-09-28T01:40:21;10.10;95.30
210;DHT22;90;48.810;9.120;2022-09-28T01:42:53;10.10;95.20
210;DHT22;90;48.810;9.120;2022-09-28T01:45:32;10.10;94.80
210;DHT22;90;48.810;9.120;2022-09-28T01:48:03;10.20;94.90
210;DHT22;90;48.810;9.120;2022-09-28T01:50:38;10.20;94.90
210;DHT22;90;48.810;9.120;2022-09-28T01:53:10;10.20;95.10
210;DHT22;90;48.810;9.120;2022-09-28T01:55:49;10.20;94.90
210;DHT22;90;48.810;9.120;2022-09-28T01:58:23;10.20;95.00
210;DHT22;90;48.810;9.120;2022-09-28T02:00:56;10.10;95.40
210;DHT22;90;48.810;9.120;2022-09-28T02:03:34;10.20;95.70
210;DHT22;90;48.810;9.120;2022-09-28T02:06:13;10.20;95.40
210;DHT22;90;48.810;9.120;2022-09-28T02:08:49;10.20;95.60
210;DHT22;90;48.810;9.120;2022-09-28T02:11:21;10.10;96.00
210;DHT22;90;48.810;9.120;2022-09-28T02:13:53;10.20;95.80
210;DHT22;90;48.810;9.120;2022-09-28T02:16:28;10.20;95.60
210;DHT22;90;48.810;9.120;2022-09-28T02:18:59;10.20;95.60
210;DHT22;90;48.810;9.120;2022-09-28T02:21:32;10.20;95.40
210;DHT22;90;48.810;9.120;2022-09-28T02:24:14;10.20;95.60
210;DHT22;90;48.810;9.120;2022-09-28T02:26:52;10.20;96.00
210;DHT22;90;48.810;9.120;2022-09-28T02:29:28;10.20;95.50
210;DHT22;90;48.810;9.120;2022-09-28T02:31:58;10.30;95.50
210;DHT22;90;48.810;9.120;2022-09-28T02:34:26;10.20;95.70
210;DHT22;90;48.810;9.120;2022-09-28T02:36:55;10.30;95.90
210;DHT22;90;48.810;9.120;2022-09-28T02:39:22;10.20;95.60
210;DHT22;90;48.810;9.120;2022-09-28T02:41:54;10.20;95.70
210;DHT22;90;48.810;9.120;2022-09-28T02:44:54;10.20;95.80
210;DHT22;90;48.810;9.120;2022-09-28T02:47:29;10.30;95.70
210;DHT22;90;48.810;9.120;2022-09-28T02:50:08;10.30;95.60
210;DHT22;90;48.810;9.120;2022-09-28T02:52:52;10.30;95.40
210;DHT22;90;48.810;9.120;2022-09-28T02:55:34;10.30;95.70
210;DHT22;90;48.810;9.120;2022-09-28T02:58:25;10.20;96.10
210;DHT22;90;48.810;9.120;2022-09-28T03:01:08;10.20;96.30
210;DHT22;90;48.810;9.120;2022-09-28T03:03:46;10.20;96.60
210;DHT22;90;48.810;9.120;2022-09-28T03:06:19;10.30;96.40
210;DHT22;90;48.810;9.120;2022-09-28T03:09:01;10.30;96.30
210;DHT22;90;48.810;9.120;2022-09-28T03:11:38;10.30;96.30
210;DHT22;90;48.810;9.120;2022-09-28T03:14:17;10.30;96.10
210;DHT22;90;48.810;9.120;2022-09-28T03:17:13;10.30;95.90
210;DHT22;90;48.810;9.120;2022-09-28T03:19:45;10.30;96.40
210;DHT22;90;48.810;9.120;2022-09-28T03:22:16;10.30;96.30
210;DHT22;90;48.810;9.120;2022-09-28T03:25:06;10.30;96.20
210;DHT22;90;48.810;9.120;2022-09-28T03:27:36;10.30;96.30
210;DHT22;90;48.810;9.120;2022-09-28T03:30:07;10.30;96.30
210;DHT22;90;48.810;9.120;2022-09-28T03:32:42;10.30;95.90
210;DHT22;90;48.810;9.120;2022-09-28T03:35:16;10.30;96.10
210;DHT22;90;48.810;9.120;2022-09-28T03:38:02;10.30;95.70
210;DHT22;90;48.810;9.120;2022-09-28T03:40:30;10.30;96.10
210;DHT22;90;48.810;9.120;2022-09-28T03:42:59;10.30;95.80
210;DHT22;90;48.810;9.120;2022-09-28T03:45:31;10.30;95.80
210;DHT22;90;48.810;9.120;2022-09-28T03:48:02;10.40;96.20
210;DHT22;90;48.810;9.120;2022-09-28T03:50:34;10.40;96.10
210;DHT22;90;48.810;9.120;2022-09-28T03:53:09;10.40;95.60
210;DHT22;90;48.810;9.120;2022-09-28T03:55:42;10.40;95.70
210;DHT22;90;48.810;9.120;2022-09-28T03:58:21;10.30;94.90
210;DHT22;90;48.810;9.120;2022-09-28T04:00:59;10.20;95.10
210;DHT22;90;48.810;9.120;2022-09-28T04:03:35;10.10;95.50
210;DHT22;90;48.810;9.120;2022-09-28T04:06:19;10.00;95.90
210;DHT22;90;48.810;9.120;2022-09-28T04:08:54;10.00;96.00
210;DHT22;90;48.810;9.120;2022-09-28T04:11:25;10.00;96.20
210;DHT22;90;48.810;9.120;2022-09-28T04:13:52;10.00;96.40
210;DHT22;90;48.810;9.120;2022-09-28T04:16:22;9.90;96.80
210;DHT22;90;48.810;9.120;2022-09-28T04:18:51;9.90;96.80
210;DHT22;90;48.810;9.120;2022-09-28T04:21:23;9.90;96.80
210;DHT22;90;48.810;9.120;2022-09-28T04:23:54;10.00;96.20
210;DHT22;90;48.810;9.120;2022-09-28T04:26:24;10.00;96.00
210;DHT22;90;48.810;9.120;2022-09-28T04:28:51;10.00;95.80
210;DHT22;90;48.810;9.120;2022-09-28T04:31:40;10.10;95.20
210;DHT22;90;48.810;9.120;2022-09-28T04:34:13;10.00;94.70
210;DHT22;90;48.810;9.120;2022-09-28T04:36:42;9.90;94.90
210;DHT22;90;48.810;9.120;2022-09-28T04:39:16;10.00;94.40
210;DHT22;90;48.810;9.120;2022-09-28T04:41:46;9.90;94.40
210;DHT22;90;48.810;9.120;2022-09-28T04:44:22;9.90;94.70
210;DHT22;90;48.810;9.120;2022-09-28T04:46:50;10.00;94.50
210;DHT22;90;48.810;9.120;2022-09-28T04:49:25;9.90;94.80
210;DHT22;90;48.810;9.120;2022-09-28T04:51:52;9.90;94.50
210;DHT22;90;48.810;9.120;2022-09-28T04:54:20;9.80;94.80
210;DHT22;90;48.810;9.120;2022-09-28T04:56:50;9.80;95.40
210;DHT22;90;48.810;9.120;2022-09-28T04:59:21;9.80;95.60
210;DHT22;90;48.810;9.120;2022-09-28T05:01:48;9.90;95.70
210;DHT22;90;48.810;9.120;2022-09-28T05:04:16;9.90;95.30
210;DHT22;90;48.810;9.120;2022-09-28T05:06:45;9.80;95.80
210;DHT22;90;48.810;9.120;2022-09-28T05:09:19;9.90;95.80
210;DHT22;90;48.810;9.120;2022-09-28T05:11:50;9.90;95.60
210;DHT22;90;48.810;9.120;2022-09-28T05:14:25;9.90;95.00
210;DHT22;90;48.810;9.120;2022-09-28T05:16:55;9.90;95.00
210;DHT22;90;48.810;9.120;2022-09-28T05:19:22;9.90;95.20
210;DHT22;90;48.810;9.120;2022-09-28T05:21:51;9.90;95.00
210;DHT22;90;48.810;9.120;2022-09-28T05:24:21;9.90;94.50
210;DHT22;90;48.810;9.120;2022-09-28T05:26:53;9.80;94.40
210;DHT22;90;48.810;9.120;2022-09-28T05:29:20;9.80;94.80
210;DHT22;90;48.810;9.120;2022-09-28T05:31:52;9.80;94.70
210;DHT22;90;48.810;9.120;2022-09-28T05:34:22;9.70;95.20
210;DHT22;90;48.810;9.120;2022-09-28T05:36:50;9.70;95.40
210;DHT22;90;48.810;9.120;2022-09-28T05:39:18;9.70;95.40
210;DHT22;90;48.810;9.120;2022-09-28T05:41:48;9.80;95.20
210;DHT22;90;48.810;9.120;2022-09-28T05:44:22;9.90;94.40
210;DHT22;90;48.810;9.120;2022-09-28T05:46:52;9.80;94.90
210;DHT22;90;48.810;9.120;2022-09-28T05:49:27;9.80;95.10
210;DHT22;90;48.810;9.120;2022-09-28T05:51:59;9.70;95.50
210;DHT22;90;48.810;9.120;2022-09-28T05:54:28;9.80;95.60
210;DHT22;90;48.810;9.120;2022-09-28T05:56:56;9.80;95.10
210;DHT22;90;48.810;9.120;2022-09-28T05:59:23;9.80;95.00
210;DHT22;90;48.810;9.120;2022-09-28T06:01:55;9.70;95.10
210;DHT22;90;48.810;9.120;2022-09-28T06:04:22;9.70;95.60
210;DHT22;90;48.810;9.120;2022-09-28T06:06:49;9.70;95.90
210;DHT22;90;48.810;9.120;2022-09-28T06:09:18;9.60;96.20
210;DHT22;90;48.810;9.120;2022-09-28T06:11:51;9.70;96.40
210;DHT22;90;48.810;9.120;2022-09-28T06:14:21;9.70;96.40
210;DHT22;90;48.810;9.120;2022-09-28T06:16:50;9.70;96.30
210;DHT22;90;48.810;9.120;2022-09-28T06:19:17;9.80;96.10
210;DHT22;90;48.810;9.120;2022-09-28T06:21:46;9.70;96.20
210;DHT22;90;48.810;9.120;2022-09-28T06:24:13;9.80;96.40
210;DHT22;90;48.810;9.120;2022-09-28T06:26:52;9.80;96.50
210;DHT22;90;48.810;9.120;2022-09-28T06:29:19;9.80;96.60
210;DHT22;90;48.810;9.120;2022-09-28T06:31:46;9.90;96.40
210;DHT22;90;48.810;9.120;2022-09-28T06:34:16;10.00;96.10
210;DHT22;90;48.810;9.120;2022-09-28T06:36:43;9.90;96.20
210;DHT22;90;48.810;9.120;2022-09-28T06:39:10;10.00;96.10
210;DHT22;90;48.810;9.120;2022-09-28T06:41:40;10.00;95.80
210;DHT22;90;48.810;9.120;2022-09-28T06:44:12;10.00;95.80
210;DHT22;90;48.810;9.120;2022-09-28T06:46:42;10.00;95.90
210;DHT22;90;48.810;9.120;2022-09-28T06:49:15;10.10;95.90
210;DHT22;90;48.810;9.120;2022-09-28T06:51:42;10.00;95.70
210;DHT22;90;48.810;9.120;2022-09-28T06:54:09;10.10;96.20
210;DHT22;90;48.810;9.120;2022-09-28T06:56:36;10.20;95.50
210;DHT22;90;48.810;9.120;2022-09-28T06:59:06;10.10;95.70
210;DHT22;90;48.810;9.120;2022-09-28T07:01:35;10.10;95.10
210;DHT22;90;48.810;9.120;2022-09-28T07:04:02;10.10;95.20
210;DHT22;90;48.810;9.120;2022-09-28T07:06:30;10.10;95.70
210;DHT22;90;48.810;9.120;2022-09-28T07:09:00;10.10;95.70
210;DHT22;90;48.810;9.120;2022-09-28T07:11:36;10.10;95.70
210;DHT22;90;48.810;9.120;2022-09-28T07:14:04;10.10;96.00
210;DHT22;90;48.810;9.120;2022-09-28T07:16:31;10.00;96.00
210;DHT22;90;48.810;9.120;2022-09-28T07:19:00;10.00;95.90
210;DHT22;90;48.810;9.120;2022-09-28T07:21:31;10.00;95.60
210;DHT22;90;48.810;9.120;2022-09-28T07:23:59;9.90;95.70
210;DHT22;90;48.810;9.120;2022-09-28T07:26:39;10.00;95.70
210;DHT22;90;48.810;9.120;2022-09-28T07:29:07;10.00;95.50
210;DHT22;90;48.810;9.120;2022-09-28T07:31:43;10.00;96.00
210;DHT22;90;48.810;9.120;2022-09-28T07:34:17;10.10;96.50
210;DHT22;90;48.810;9.120;2022-09-28T07:36:48;10.10;95.90
210;DHT22;90;48.810;9.120;2022-09-28T07:39:16;10.10;95.50
210;DHT22;90;48.810;9.120;2022-09-28T07:41:44;10.10;95.00
210;DHT22;90;48.810;9.120;2022-09-28T07:44:10;10.10;94.70
210;DHT22;90;48.810;9.120;2022-09-28T07:46:39;10.10;94.90
210;DHT22;90;48.810;9.120;2022-09-28T07:49:08;10.10;94.80
210;DHT22;90;48.810;9.120;2022-09-28T07:51:37;10.20;94.70
210;DHT22;90;48.810;9.120;2022-09-28T07:54:09;10.30;93.80
210;DHT22;90;48.810;9.120;2022-09-28T07:56:36;10.30;93.90
210;DHT22;90;48.810;9.120;2022-09-28T07:59:03;10.30;93.90
210;DHT22;90;48.810;9.120;2022-09-28T08:01:31;10.30;94.00
210;DHT22;90;48.810;9.120;2022-09-28T08:04:00;10.30;94.30
210;DHT22;90;48.810;9.120;2022-09-28T08:06:29;10.30;94.70
210;DHT22;90;48.810;9.120;2022-09-28T08:08:58;10.30;93.70
210;DHT22;90;48.810;9.120;2022-09-28T08:11:26;10.30;93.60
210;DHT22;90;48.810;9.120;2022-09-28T08:13:53;10.30;94.00
210;DHT22;90;48.810;9.120;2022-09-28T08:16:25;10.30;93.70
210;DHT22;90;48.810;9.120;2022-09-28T08:18:57;10.30;93.10
210;DHT22;90;48.810;9.120;2022-09-28T08:21:24;10.30;93.60
210;DHT22;90;48.810;9.120;2022-09-28T08:24:07;10.30;92.60
210;DHT22;90;48.810;9.120;2022-09-28T08:26:36;10.40;92.80
210;DHT22;90;48.810;9.120;2022-09-28T08:29:03;10.50;91.70
210;DHT22;90;48.810;9.120;2022-09-28T08:31:34;10.50;91.70
210;DHT22;90;48.810;9.120;2022-09-28T08:34:01;10.40;91.00
210;DHT22;90;48.810;9.120;2022-09-28T08:36:28;10.50;92.10
210;DHT22;90;48.810;9.120;2022-09-28T08:38:59;10.50;89.60
210;DHT22;90;48.810;9.120;2022-09-28T08:41:37;10.60;90.10
210;DHT22;90;48.810;9.120;2022-09-28T08:44:21;10.60;90.00
210;DHT22;90;48.810;9.120;2022-09-28T08:46:52;10.70;90.80
210;DHT22;90;48.810;9.120;2022-09-28T08:49:25;10.70;89.70
210;DHT22;90;48.810;9.120;2022-09-28T08:51:58;10.70;90.20
210;DHT22;90;48.810;9.120;2022-09-28T08:54:39;10.70;89.80
210;DHT22;90;48.810;9.120;2022-09-28T08:57:16;10.80;90.10
210;DHT22;90;48.810;9.120;2022-09-28T08:59:54;10.80;90.70
210;DHT22;90;48.810;9.120;2022-09-28T09:02:25;10.80;89.00
210;DHT22;90;48.810;9.120;2022-09-28T09:04:58;10.80;89.40
210;DHT22;90;48.810;9.120;2022-09-28T09:07:54;10.80;87.70
210;DHT22;90;48.810;9.120;2022-09-28T09:10:49;10.80;88.30
210;DHT22;90;48.810;9.120;2022-09-28T09:13:52;10.80;87.20
210;DHT22;90;48.810;9.120;2022-09-28T09:16:43;10.70;87.50
210;DHT22;90;48.810;9.120;2022-09-28T09:19:15;10.80;86.00
210;DHT22;90;48.810;9.120;2022-09-28T09:21:48;10.80;86.50
210;DHT22;90;48.810;9.120;2022-09-28T09:24:26;10.90;86.40
210;DHT22;90;48.810;9.120;2022-09-28T09:27:07;10.90;85.80
210;DHT22;90;48.810;9.120;2022-09-28T09:29:58;11.00;86.10
210;DHT22;90;48.810;9.120;2022-09-28T09:32:43;11.10;85.20
210;DHT22;90;48.810;9.120;2022-09-28T09:38:35;11.20;85.80
210;DHT22;90;48.810;9.120;2022-09-28T09:41:20;11.30;86.50
210;DHT22;90;48.810;9.120;2022-09-28T09:44:04;11.50;86.00
210;DHT22;90;48.810;9.120;2022-09-28T09:46:41;11.60;85.90
210;DHT22;90;48.810;9.120;2022-09-28T09:49:18;11.70;84.40
210;DHT22;90;48.810;9.120;2022-09-28T09:51:55;11.70;83.60
210;DHT22;90;48.810;9.120;2022-09-28T09:54:27;11.60;82.40
210;DHT22;90;48.810;9.120;2022-09-28T09:57:13;11.60;83.90
210;DHT22;90;48.810;9.120;2022-09-28T09:59:47;11.60;83.20
210;DHT22;90;48.810;9.120;2022-09-28T10:02:24;11.50;83.60
210;DHT22;90;48.810;9.120;2022-09-28T10:04:56;11.50;83.20
210;DHT22;90;48.810;9.120;2022-09-28T10:07:29;11.40;83.70
210;DHT22;90;48.810;9.120;2022-09-28T10:10:09;11.50;82.60
210;DHT22;90;48.810;9.120;2022-09-28T10:12:37;11.50;82.70
210;DHT22;90;48.810;9.120;2022-09-28T10:15:06;11.50;82.00
210;DHT22;90;48.810;9.120;2022-09-28T10:17:36;11.60;83.00
210;DHT22;90;48.810;9.120;2022-09-28T10:20:11;11.60;81.40
210;DHT22;90;48.810;9.120;2022-09-28T10:22:43;11.60;79.80
210;DHT22;90;48.810;9.120;2022-09-28T10:25:13;11.50;79.30
210;DHT22;90;48.810;9.120;2022-09-28T10:27:43;11.40;79.20
210;DHT22;90;48.810;9.120;2022-09-28T10:30:24;11.50;79.80
210;DHT22;90;48.810;9.120;2022-09-28T10:32:55;11.50;78.80
210;DHT22;90;48.810;9.120;2022-09-28T10:35:28;11.50;79.20
210;DHT22;90;48.810;9.120;2022-09-28T10:38:12;11.50;79.60
210;DHT22;90;48.810;9.120;2022-09-28T10:40:43;11.50;79.40
210;DHT22;90;48.810;9.120;2022-09-28T10:43:19;11.60;80.90
210;DHT22;90;48.810;9.120;2022-09-28T10:45:58;11.70;80.70
210;DHT22;90;48.810;9.120;2022-09-28T10:48:32;11.70;77.70
210;DHT22;90;48.810;9.120;2022-09-28T10:51:08;11.70;76.90
210;DHT22;90;48.810;9.120;2022-09-28T10:53:38;11.70;77.50
210;DHT22;90;48.810;9.120;2022-09-28T10:56:21;11.70;77.30
210;DHT22;90;48.810;9.120;2022-09-28T10:58:52;11.70;76.60
210;DHT22;90;48.810;9.120;2022-09-28T11:01:27;11.70;77.40
210;DHT22;90;48.810;9.120;2022-09-28T11:04:05;11.90;75.90
210;DHT22;90;48.810;9.120;2022-09-28T11:06:49;11.90;77.00
210;DHT22;90;48.810;9.120;2022-09-28T11:09:26;11.90;76.70
210;DHT22;90;48.810;9.120;2022-09-28T11:11:57;11.90;76.70
210;DHT22;90;48.810;9.120;2022-09-28T11:14:28;12.00;77.00
210;DHT22;90;48.810;9.120;2022-09-28T11:17:16;12.00;76.40
210;DHT22;90;48.810;9.120;2022-09-28T11:19:50;11.90;76.70
210;DHT22;90;48.810;9.120;2022-09-28T11:22:23;11.80;77.20
210;DHT22;90;48.810;9.120;2022-09-28T11:25:23;11.80;77.50
210;DHT22;90;48.810;9.120;2022-09-28T11:28:00;12.30;90.00
210;DHT22;90;48.810;9.120;2022-09-28T11:30:32;12.60;76.80
210;DHT22;90;48.810;9.120;2022-09-28T11:33:08;12.70;75.90
210;DHT22;90;48.810;9.120;2022-09-28T11:35:48;12.80;77.00
210;DHT22;90;48.810;9.120;2022-09-28T11:38:31;12.80;74.60
210;DHT22;90;48.810;9.120;2022-09-28T11:44:36;12.70;74.20
210;DHT22;90;48.810;9.120;2022-09-28T11:47:41;12.70;74.40
210;DHT22;90;48.810;9.120;2022-09-28T11:50:22;12.60;74.40
210;DHT22;90;48.810;9.120;2022-09-28T11:53:10;12.80;73.20
210;DHT22;90;48.810;9.120;2022-09-28T11:55:46;12.70;72.60
210;DHT22;90;48.810;9.120;2022-09-28T11:58:21;12.50;73.70
210;DHT22;90;48.810;9.120;2022-09-28T12:00:58;12.60;74.40
210;DHT22;90;48.810;9.120;2022-09-28T12:03:32;12.60;73.60
210;DHT22;90;48.810;9.120;2022-09-28T12:06:06;12.70;74.00
210;DHT22;90;48.810;9.120;2022-09-28T12:08:40;12.60;74.20
210;DHT22;90;48.810;9.120;2022-09-28T12:11:14;12.60;75.00
210;DHT22;90;48.810;9.120;2022-09-28T12:13:46;12.60;75.30
210;DHT22;90;48.810;9.120;2022-09-28T12:16:23;12.50;74.30
210;DHT22;90;48.810;9.120;2022-09-28T12:18:58;12.60;73.80
210;DHT22;90;48.810;9.120;2022-09-28T12:21:35;12.70;73.10
210;DHT22;90;48.810;9.120;2022-09-28T12:24:11;12.60;73.90
210;DHT22;90;48.810;9.120;2022-09-28T12:26:47;12.70;73.90
210;DHT22;90;48.810;9.120;2022-09-28T12:29:24;12.80;73.70
210;DHT22;90;48.810;9.120;2022-09-28T12:32:17;12.80;72.10
210;DHT22;90;48.810;9.120;2022-09-28T12:34:50;12.80;71.40
210;DHT22;90;48.810;9.120;2022-09-28T12:37:30;12.90;70.70
210;DHT22;90;48.810;9.120;2022-09-28T12:40:19;12.90;70.20
210;DHT22;90;48.810;9.120;2022-09-28T12:46:00;13.10;69.80
210;DHT22;90;48.810;9.120;2022-09-28T12:48:39;13.20;70.10
210;DHT22;90;48.810;9.120;2022-09-28T12:51:18;13.20;70.20
210;DHT22;90;48.810;9.120;2022-09-28T12:54:03;13.20;70.20
210;DHT22;90;48.810;9.120;2022-09-28T12:56:51;13.20;68.60
210;DHT22;90;48.810;9.120;2022-09-28T12:59:28;13.20;68.80
210;DHT22;90;48.810;9.120;2022-09-28T13:02:10;13.20;68.40
210;DHT22;90;48.810;9.120;2022-09-28T13:05:01;13.40;75.00
210;DHT22;90;48.810;9.120;2022-09-28T13:07:42;14.20;72.30
210;DHT22;90;48.810;9.120;2022-09-28T13:10:20;14.80;71.90
210;DHT22;90;48.810;9.120;2022-09-28T13:13:23;15.20;70.40
210;DHT22;90;48.810;9.120;2022-09-28T13:15:59;15.20;62.10
210;DHT22;90;48.810;9.120;2022-09-28T13:18:39;14.90;63.00
210;DHT22;90;48.810;9.120;2022-09-28T13:21:21;14.90;62.80
210;DHT22;90;48.810;9.120;2022-09-28T13:23:57;15.00;65.70
210;DHT22;90;48.810;9.120;2022-09-28T13:26:29;15.10;65.10
210;DHT22;90;48.810;9.120;2022-09-28T13:29:03;15.20;65.20
210;DHT22;90;48.810;9.120;2022-09-28T13:31:31;15.30;62.70
210;DHT22;90;48.810;9.120;2022-09-28T13:34:16;15.40;64.30
210;DHT22;90;48.810;9.120;2022-09-28T13:37:19;15.20;61.80
210;DHT22;90;48.810;9.120;2022-09-28T13:39:51;15.50;63.20
210;DHT22;90;48.810;9.120;2022-09-28T13:42:58;15.30;60.40
210;DHT22;90;48.810;9.120;2022-09-28T13:45:49;15.50;63.30
210;DHT22;90;48.810;9.120;2022-09-28T13:48:21;15.80;62.30
210;DHT22;90;48.810;9.120;2022-09-28T13:51:18;15.70;60.20
210;DHT22;90;48.810;9.120;2022-09-28T13:54:11;15.80;61.20
210;DHT22;90;48.810;9.120;2022-09-28T13:56:49;15.80;62.10
210;DHT22;90;48.810;9.120;2022-09-28T13:59:23;15.60;60.40
210;DHT22;90;48.810;9.120;2022-09-28T14:01:56;15.50;61.00
210;DHT22;90;48.810;9.120;2022-09-28T14:04:52;15.20;59.70
210;DHT22;90;48.810;9.120;2022-09-28T14:07:22;15.10;62.20
210;DHT22;90;48.810;9.120;2022-09-28T14:10:15;15.00;61.40
210;DHT22;90;48.810;9.120;2022-09-28T14:12:45;15.50;62.20
210;DHT22;90;48.810;9.120;2022-09-28T14:15:38;15.40;59.20
210;DHT22;90;48.810;9.120;2022-09-28T14:18:21;15.30;62.60
210;DHT22;90;48.810;9.120;2022-09-28T14:21:05;15.70;63.10
210;DHT22;90;48.810;9.120;2022-09-28T14:26:59;15.70;59.80
210;DHT22;90;48.810;9.120;2022-09-28T14:29:33;15.40;59.60
210;DHT22;90;48.810;9.120;2022-09-28T14:32:04;15.20;60.60
210;DHT22;90;48.810;9.120;2022-09-28T14:34:41;15.10;60.70
210;DHT22;90;48.810;9.120;2022-09-28T14:37:19;15.00;61.00
210;DHT22;90;48.810;9.120;2022-09-28T14:40:19;14.90;61.50
210;DHT22;90;48.810;9.120;2022-09-28T14:43:35;14.80;62.40
210;DHT22;90;48.810;9.120;2022-09-28T14:46:27;14.80;60.70
210;DHT22;90;48.810;9.120;2022-09-28T14:48:58;14.80;60.80
210;DHT22;90;48.810;9.120;2022-09-28T14:52:00;14.70;60.90
210;DHT22;90;48.810;9.120;2022-09-28T14:54:54;14.60;61.10
210;DHT22;90;48.810;9.120;2022-09-28T14:57:24;14.30;60.90
210;DHT22;90;48.810;9.120;2022-09-28T15:00:09;14.20;60.90
210;DHT22;90;48.810;9.120;2022-09-28T15:02:48;14.10;61.00
210;DHT22;90;48.810;9.120;2022-09-28T15:05:21;14.00;60.80
210;DHT22;90;48.810;9.120;2022-09-28T15:07:51;14.00;60.80
210;DHT22;90;48.810;9.120;2022-09-28T15:10:25;13.80;61.30
210;DHT22;90;48.810;9.120;2022-09-28T15:12:57;13.80;62.40
210;DHT22;90;48.810;9.120;2022-09-28T15:15:36;13.90;62.90
210;DHT22;90;48.810;9.120;2022-09-28T15:18:33;14.00;62.80
210;DHT22;90;48.810;9.120;2022-09-28T15:21:08;14.00;62.90
210;DHT22;90;48.810;9.120;2022-09-28T15:23:40;14.00;63.30
210;DHT22;90;48.810;9.120;2022-09-28T15:26:20;14.00;63.60
210;DHT22;90;48.810;9.120;2022-09-28T15:28:54;14.10;63.40
210;DHT22;90;48.810;9.120;2022-09-28T15:31:23;14.30;62.80
210;DHT22;90;48.810;9.120;2022-09-28T15:33:53;14.20;63.00
210;DHT22;90;48.810;9.120;2022-09-28T15:36:43;14.20;62.50
210;DHT22;90;48.810;9.120;2022-09-28T15:39:20;14.00;63.60
210;DHT22;90;48.810;9.120;2022-09-28T15:42:00;13.90;64.70
210;DHT22;90;48.810;9.120;2022-09-28T15:44:35;13.90;64.50
210;DHT22;90;48.810;9.120;2022-09-28T15:47:08;13.90;63.60
210;DHT22;90;48.810;9.120;2022-09-28T15:49:40;13.90;63.80
210;DHT22;90;48.810;9.120;2022-09-28T15:52:26;13.80;63.90
210;DHT22;90;48.810;9.120;2022-09-28T15:55:04;13.70;63.60
210;DHT22;90;48.810;9.120;2022-09-28T15:57:39;13.60;64.10
210;DHT22;90;48.810;9.120;2022-09-28T16:00:23;13.50;63.40
210;DHT22;90;48.810;9.120;2022-09-28T16:03:19;13.50;64.20
210;DHT22;90;48.810;9.120;2022-09-28T16:05:51;13.50;64.40
210;DHT22;90;48.810;9.120;2022-09-28T16:08:19;13.50;64.10
210;DHT22;90;48.810;9.120;2022-09-28T16:11:01;13.50;64.20
210;DHT22;90;48.810;9.120;2022-09-28T16:13:30;13.30;64.80
210;DHT22;90;48.810;9.120;2022-09-28T16:16:04;13.30;65.50
210;DHT22;90;48.810;9.120;2022-09-28T16:18:32;13.30;66.20
210;DHT22;90;48.810;9.120;2022-09-28T16:21:31;13.30;67.10
210;DHT22;90;48.810;9.120;2022-09-28T16:24:01;13.30;68.30
210;DHT22;90;48.810;9.120;2022-09-28T16:26:35;13.30;68.80
210;DHT22;90;48.810;9.120;2022-09-28T16:29:23;13.30;69.30
210;DHT22;90;48.810;9.120;2022-09-28T16:31:55;13.20;70.40
210;DHT22;90;48.810;9.120;2022-09-28T16:34:27;13.20;71.10
210;DHT22;90;48.810;9.120;2022-09-28T16:36:57;13.10;72.20
210;DHT22;90;48.810;9.120;2022-09-28T16:39:24;13.10;72.60
210;DHT22;90;48.810;9.120;2022-09-28T16:41:55;13.00;73.50
210;DHT22;90;48.810;9.120;2022-09-28T16:44:26;13.00;74.50
210;DHT22;90;48.810;9.120;2022-09-28T16:46:57;13.00;74.80
210;DHT22;90;48.810;9.120;2022-09-28T16:49:28;12.90;75.80
210;DHT22;90;48.810;9.120;2022-09-28T16:51:59;12.80;76.90
210;DHT22;90;48.810;9.120;2022-09-28T16:54:28;12.70;77.30
210;DHT22;90;48.810;9.120;2022-09-28T16:57:17;12.90;75.10
210;DHT22;90;48.810;9.120;2022-09-28T16:59:48;13.00;76.00
210;DHT22;90;48.810;9.120;2022-09-28T17:02:18;13.00;75.70
210;DHT22;90;48.810;9.120;2022-09-28T17:04:57;12.90;75.60
210;DHT22;90;48.810;9.120;2022-09-28T17:07:27;12.80;76.10
210;DHT22;90;48.810;9.120;2022-09-28T17:09:54;12.60;76.90
210;DHT22;90;48.810;9.120;2022-09-28T17:12:23;12.50;78.70
210;DHT22;90;48.810;9.120;2022-09-28T17:14:56;12.40;78.20
210;DHT22;90;48.810;9.120;2022-09-28T17:17:27;12.20;78.30
210;DHT22;90;48.810;9.120;2022-09-28T17:19:58;12.10;79.10
210;DHT22;90;48.810;9.120;2022-09-28T17:22:28;11.90;79.40
210;DHT22;90;48.810;9.120;2022-09-28T17:24:58;11.90;79.50
210;DHT22;90;48.810;9.120;2022-09-28T17:27:32;11.80;79.40
210;DHT22;90;48.810;9.120;2022-09-28T17:30:03;11.80;79.40
210;DHT22;90;48.810;9.120;2022-09-28T17:32:31;11.70;79.60
210;DHT22;90;48.810;9.120;2022-09-28T17:35:03;11.50;80.00
210;DHT22;90;48.810;9.120;2022-09-28T17:37:32;11.50;79.90
210;DHT22;90;48.810;9.120;2022-09-28T17:40:19;11.50;79.70
210;DHT22;90;48.810;9.120;2022-09-28T17:42:50;11.50;79.60
210;DHT22;90;48.810;9.120;2022-09-28T17:45:22;11.40;79.60
210;DHT22;90;48.810;9.120;2022-09-28T17:47:56;11.40;79.60
210;DHT22;90;48.810;9.120;2022-09-28T17:50:32;11.30;79.80
210;DHT22;90;48.810;9.120;2022-09-28T17:53:00;11.30;79.70
210;DHT22;90;48.810;9.120;2022-09-28T17:55:32;11.20;79.60
210;DHT22;90;48.810;9.120;2022-09-28T17:58:17;11.20;79.80
210;DHT22;90;48.810;9.120;2022-09-28T18:00:52;11.20;79.60
210;DHT22;90;48.810;9.120;2022-09-28T18:03:23;11.10;79.70
210;DHT22;90;48.810;9.120;2022-09-28T18:05:58;11.00;79.50